PWSweather.com
Personal Weather Stations
Station Observations
BSWETTER1
Bswetter.de, BraunschweigDE 38106

Bswetter.deBraunschweigDE 38106

Lat: 52.2751483, Lon: 10.5434341

Elevation: 295

Station Type: Davis Vantage II Pro Plus Aktiv

http://bswetter.de/

High Low Average
Temperature 57.9°F14.4°F 49.9°F9.9°F 54.6°F12.6°F
Dew Point 53.9°F12.2°F 46.0°F7.8°F 50.2°F10.1°F
Winds 10.4 mph -16.7 mph - 1.1 mph 1.8 mph 5.5 mph 8.9 mph
Wind Gusts 19.6 mph31.5 mph 3.5 mph5.6 mph 8.9 mph14.3 mph
Humidity 94% 73% 85%
Pressure 30.17 in1021.70 in 30.09 in1019.00 in -
Precipitation 0.33 in8.40 in - -
Hour Temp Dew Point Humidity Winds Wind Gusts Pressure Precip Precip Rate Daily Precip Total
12:00 AM 55.1°F12.8°C 48.4°F9.1°C 78% 8.1 mph WNW13.0 kmh WNW 11.5 mph18.5 kmh 30.17 in1021.7 mb - 0.00 in0.0 mm 0.00 in0.0 mm
12:10 AM 55.1°F12.8°C 48.4°F9.1°C 78% 4.6 mph W7.4 kmh W 10.4 mph16.7 kmh 30.16 in1021.3 mb - 0.00 in0.0 mm 0.00 in0.0 mm
12:15 AM 55.1°F12.8°C 48.4°F9.1°C 78% 4.6 mph NW7.4 kmh NW 9.2 mph14.8 kmh 30.16 in1021.3 mb - 0.00 in0.0 mm 0.00 in0.0 mm
12:20 AM 55.1°F12.8°C 48.4°F9.1°C 78% 5.8 mph NW9.3 kmh NW 9.2 mph14.8 kmh 30.16 in1021.3 mb - 0.00 in0.0 mm 0.00 in0.0 mm
12:25 AM 55.1°F12.8°C 48.4°F9.1°C 78% 5.8 mph W9.3 kmh W 8.1 mph13.0 kmh 30.16 in1021.3 mb - 0.00 in0.0 mm 0.00 in0.0 mm
12:30 AM 55.0°F12.8°C 48.3°F9.1°C 78% 6.9 mph NW11.1 kmh NW 8.1 mph13.0 kmh 30.16 in1021.3 mb - 0.00 in0.0 mm 0.00 in0.0 mm
12:35 AM 55.0°F12.8°C 47.9°F8.8°C 77% 3.5 mph NW5.6 kmh NW 4.6 mph7.4 kmh 30.16 in1021.3 mb - 0.00 in0.0 mm 0.00 in0.0 mm
12:40 AM 55.0°F12.8°C 47.9°F8.8°C 77% 4.6 mph NW7.4 kmh NW 6.9 mph11.1 kmh 30.16 in1021.3 mb - 0.00 in0.0 mm 0.00 in0.0 mm
12:45 AM 55.0°F12.8°C 47.9°F8.8°C 77% 4.6 mph NW7.4 kmh NW 10.4 mph16.7 kmh 30.16 in1021.3 mb - 0.00 in0.0 mm 0.00 in0.0 mm
12:50 AM 54.9°F12.7°C 47.8°F8.8°C 77% 4.6 mph WNW7.4 kmh WNW 13.8 mph22.2 kmh 30.16 in1021.3 mb - 0.00 in0.0 mm 0.00 in0.0 mm
12:55 AM 54.9°F12.7°C 47.8°F8.8°C 77% 4.6 mph NW7.4 kmh NW 8.1 mph13.0 kmh 30.16 in1021.3 mb - 0.00 in0.0 mm 0.00 in0.0 mm
01:00 AM 54.8°F12.7°C 47.7°F8.7°C 77% 6.9 mph WNW11.1 kmh WNW 9.2 mph14.8 kmh 30.16 in1021.3 mb - 0.00 in0.0 mm 0.00 in0.0 mm
01:10 AM 54.7°F12.6°C 47.6°F8.7°C 77% 6.9 mph NW11.1 kmh NW 9.2 mph14.8 kmh 30.15 in1021.0 mb - 0.00 in0.0 mm 0.00 in0.0 mm
01:15 AM 54.6°F12.6°C 47.5°F8.6°C 77% 5.8 mph NW9.3 kmh NW 6.9 mph11.1 kmh 30.15 in1021.0 mb - 0.00 in0.0 mm 0.00 in0.0 mm
01:20 AM 54.6°F12.6°C 47.5°F8.6°C 77% 5.8 mph NW9.3 kmh NW 6.9 mph11.1 kmh 30.15 in1021.0 mb - 0.00 in0.0 mm 0.00 in0.0 mm
01:25 AM 54.6°F12.6°C 47.5°F8.6°C 77% 4.6 mph W7.4 kmh W 9.2 mph14.8 kmh 30.15 in1021.0 mb - 0.00 in0.0 mm 0.00 in0.0 mm
01:30 AM 54.5°F12.5°C 47.4°F8.6°C 77% 3.5 mph WNW5.6 kmh WNW 5.8 mph9.3 kmh 30.15 in1021.0 mb - 0.00 in0.0 mm 0.00 in0.0 mm
01:35 AM 54.4°F12.4°C 47.4°F8.6°C 77% 4.6 mph NW7.4 kmh NW 11.5 mph18.5 kmh 30.14 in1020.7 mb - 0.00 in0.0 mm 0.00 in0.0 mm
01:40 AM 54.3°F12.4°C 47.6°F8.7°C 78% 4.6 mph NW7.4 kmh NW 8.1 mph13.0 kmh 30.14 in1020.7 mb - 0.00 in0.0 mm 0.00 in0.0 mm
01:45 AM 54.3°F12.4°C 47.6°F8.7°C 78% 4.6 mph W7.4 kmh W 8.1 mph13.0 kmh 30.14 in1020.7 mb - 0.00 in0.0 mm 0.00 in0.0 mm
01:50 AM 54.2°F12.3°C 47.5°F8.6°C 78% 4.6 mph W7.4 kmh W 9.2 mph14.8 kmh 30.14 in1020.7 mb - 0.00 in0.0 mm 0.00 in0.0 mm
01:55 AM 54.2°F12.3°C 47.4°F8.6°C 78% 3.5 mph NW5.6 kmh NW 9.2 mph14.8 kmh 30.14 in1020.7 mb - 0.00 in0.0 mm 0.00 in0.0 mm
02:00 AM 54.1°F12.3°C 47.4°F8.6°C 78% 6.9 mph NW11.1 kmh NW 12.7 mph20.4 kmh 30.14 in1020.7 mb - 0.00 in0.0 mm 0.00 in0.0 mm
02:10 AM 53.8°F12.1°C 47.1°F8.4°C 78% 10.4 mph WNW16.7 kmh WNW 12.7 mph20.4 kmh 30.14 in1020.7 mb - 0.00 in0.0 mm 0.00 in0.0 mm
02:15 AM 53.7°F12.1°C 47.3°F8.5°C 79% 9.2 mph NW14.8 kmh NW 11.5 mph18.5 kmh 30.14 in1020.7 mb - 0.00 in0.0 mm 0.00 in0.0 mm
02:20 AM 53.5°F11.9°C 47.1°F8.4°C 79% 9.2 mph NW14.8 kmh NW 11.5 mph18.5 kmh 30.14 in1020.7 mb - 0.00 in0.0 mm 0.00 in0.0 mm
02:25 AM 53.3°F11.8°C 47.0°F8.3°C 79% 4.6 mph NW7.4 kmh NW 8.1 mph13.0 kmh 30.14 in1020.7 mb - 0.00 in0.0 mm 0.00 in0.0 mm
02:30 AM 53.2°F11.8°C 47.2°F8.4°C 80% 4.6 mph NW7.4 kmh NW 9.2 mph14.8 kmh 30.14 in1020.7 mb - 0.00 in0.0 mm 0.00 in0.0 mm
02:35 AM 53.1°F11.7°C 47.1°F8.4°C 80% 8.1 mph WNW13.0 kmh WNW 9.2 mph14.8 kmh 30.14 in1020.7 mb - 0.00 in0.0 mm 0.00 in0.0 mm
02:40 AM 52.9°F11.6°C 47.2°F8.4°C 81% 4.6 mph NW7.4 kmh NW 8.1 mph13.0 kmh 30.14 in1020.7 mb - 0.00 in0.0 mm 0.00 in0.0 mm
02:45 AM 52.8°F11.6°C 47.1°F8.4°C 81% 3.5 mph W5.6 kmh W 5.8 mph9.3 kmh 30.14 in1020.7 mb - 0.00 in0.0 mm 0.00 in0.0 mm
02:50 AM 52.6°F11.4°C 46.9°F8.3°C 81% 3.5 mph W5.6 kmh W 3.5 mph5.6 kmh 30.14 in1020.7 mb - 0.00 in0.0 mm 0.00 in0.0 mm
02:55 AM 52.5°F11.4°C 47.1°F8.4°C 82% 5.8 mph WNW9.3 kmh WNW 8.1 mph13.0 kmh 30.14 in1020.7 mb - 0.00 in0.0 mm 0.00 in0.0 mm
03:00 AM 52.3°F11.3°C 47.0°F8.3°C 82% 3.5 mph NW5.6 kmh NW 4.6 mph7.4 kmh 30.14 in1020.7 mb - 0.00 in0.0 mm 0.00 in0.0 mm
03:10 AM 52.1°F11.2°C 46.8°F8.2°C 82% 4.6 mph W7.4 kmh W 11.5 mph18.5 kmh 30.13 in1020.3 mb - 0.00 in0.0 mm 0.00 in0.0 mm
03:15 AM 52.0°F11.1°C 47.0°F8.3°C 83% 4.6 mph W7.4 kmh W 11.5 mph18.5 kmh 30.14 in1020.7 mb - 0.00 in0.0 mm 0.00 in0.0 mm
03:20 AM 51.9°F11.1°C 46.9°F8.3°C 83% 3.5 mph NW5.6 kmh NW 4.6 mph7.4 kmh 30.13 in1020.3 mb - 0.00 in0.0 mm 0.00 in0.0 mm
03:25 AM 51.9°F11.1°C 46.9°F8.3°C 83% 4.6 mph WNW7.4 kmh WNW 9.2 mph14.8 kmh 30.13 in1020.3 mb - 0.00 in0.0 mm 0.00 in0.0 mm
03:30 AM 51.8°F11.0°C 46.8°F8.2°C 83% 5.8 mph W9.3 kmh W 10.4 mph16.7 kmh 30.13 in1020.3 mb - 0.00 in0.0 mm 0.00 in0.0 mm
03:35 AM 51.7°F10.9°C 46.7°F8.2°C 83% 2.3 mph W3.7 kmh W 5.8 mph9.3 kmh 30.13 in1020.3 mb - 0.00 in0.0 mm 0.00 in0.0 mm
03:40 AM 51.7°F10.9°C 47.0°F8.3°C 84% 3.5 mph W5.6 kmh W 8.1 mph13.0 kmh 30.13 in1020.3 mb - 0.00 in0.0 mm 0.00 in0.0 mm
03:45 AM 51.6°F10.9°C 46.9°F8.3°C 84% 4.6 mph W7.4 kmh W 5.8 mph9.3 kmh 30.13 in1020.3 mb - 0.00 in0.0 mm 0.00 in0.0 mm
03:50 AM 51.4°F10.8°C 46.8°F8.2°C 84% 4.6 mph W7.4 kmh W 6.9 mph11.1 kmh 30.13 in1020.3 mb - 0.00 in0.0 mm 0.00 in0.0 mm
03:55 AM 51.3°F10.7°C 46.6°F8.1°C 84% 4.6 mph W7.4 kmh W 8.1 mph13.0 kmh 30.13 in1020.3 mb - 0.00 in0.0 mm 0.00 in0.0 mm
04:00 AM 51.2°F10.7°C 46.5°F8.1°C 84% 3.5 mph WNW5.6 kmh WNW 8.1 mph13.0 kmh 30.13 in1020.3 mb - 0.00 in0.0 mm 0.00 in0.0 mm
04:10 AM 51.0°F10.6°C 46.6°F8.1°C 85% 3.5 mph WSW5.6 kmh WSW 8.1 mph13.0 kmh 30.13 in1020.3 mb - 0.00 in0.0 mm 0.00 in0.0 mm
04:15 AM 50.9°F10.5°C 46.6°F8.1°C 85% 4.6 mph WNW7.4 kmh WNW 6.9 mph11.1 kmh 30.13 in1020.3 mb - 0.00 in0.0 mm 0.00 in0.0 mm
04:20 AM 50.8°F10.4°C 46.5°F8.1°C 85% 4.6 mph WSW7.4 kmh WSW 5.8 mph9.3 kmh 30.13 in1020.3 mb - 0.00 in0.0 mm 0.00 in0.0 mm
04:25 AM 50.7°F10.4°C 46.3°F7.9°C 85% 3.5 mph WSW5.6 kmh WSW 5.8 mph9.3 kmh 30.13 in1020.3 mb - 0.00 in0.0 mm 0.00 in0.0 mm
04:30 AM 50.5°F10.3°C 46.5°F8.1°C 86% 3.5 mph WSW5.6 kmh WSW 9.2 mph14.8 kmh 30.13 in1020.3 mb - 0.00 in0.0 mm 0.00 in0.0 mm
04:35 AM 50.4°F10.2°C 46.4°F8.0°C 86% 4.6 mph WSW7.4 kmh WSW 6.9 mph11.1 kmh 30.13 in1020.3 mb - 0.00 in0.0 mm 0.00 in0.0 mm
04:40 AM 50.3°F10.2°C 46.3°F7.9°C 86% 5.8 mph WSW9.3 kmh WSW 10.4 mph16.7 kmh 30.13 in1020.3 mb - 0.00 in0.0 mm 0.00 in0.0 mm
04:45 AM 50.1°F10.1°C 46.1°F7.8°C 86% 4.6 mph SW7.4 kmh SW 8.1 mph13.0 kmh 30.13 in1020.3 mb - 0.00 in0.0 mm 0.00 in0.0 mm
04:50 AM 50.0°F10.0°C 46.0°F7.8°C 86% 3.5 mph SW5.6 kmh SW 5.8 mph9.3 kmh 30.13 in1020.3 mb - 0.00 in0.0 mm 0.00 in0.0 mm
04:55 AM 50.0°F10.0°C 46.3°F7.9°C 87% 3.5 mph WSW5.6 kmh WSW 5.8 mph9.3 kmh 30.13 in1020.3 mb - 0.00 in0.0 mm 0.00 in0.0 mm
05:00 AM 49.9°F9.9°C 46.2°F7.9°C 87% 5.8 mph WSW9.3 kmh WSW 9.2 mph14.8 kmh 30.13 in1020.3 mb - 0.00 in0.0 mm 0.00 in0.0 mm
05:10 AM 49.9°F9.9°C 46.2°F7.9°C 87% 4.6 mph WSW7.4 kmh WSW 8.1 mph13.0 kmh 30.12 in1020.0 mb - 0.00 in0.0 mm 0.00 in0.0 mm
05:15 AM 49.9°F9.9°C 46.2°F7.9°C 87% 6.9 mph WSW11.1 kmh WSW 10.4 mph16.7 kmh 30.12 in1020.0 mb - 0.00 in0.0 mm 0.00 in0.0 mm
05:20 AM 49.9°F9.9°C 46.2°F7.9°C 87% 4.6 mph W7.4 kmh W 8.1 mph13.0 kmh 30.13 in1020.3 mb - 0.00 in0.0 mm 0.00 in0.0 mm
05:25 AM 49.9°F9.9°C 46.2°F7.9°C 87% 2.3 mph WNW3.7 kmh WNW 9.2 mph14.8 kmh 30.13 in1020.3 mb - 0.00 in0.0 mm 0.00 in0.0 mm
05:30 AM 50.0°F10.0°C 46.3°F7.9°C 87% 4.6 mph WNW7.4 kmh WNW 8.1 mph13.0 kmh 30.13 in1020.3 mb - 0.00 in0.0 mm 0.00 in0.0 mm
05:35 AM 50.1°F10.1°C 46.4°F8.0°C 87% 5.8 mph WNW9.3 kmh WNW 9.2 mph14.8 kmh 30.13 in1020.3 mb - 0.00 in0.0 mm 0.00 in0.0 mm
05:40 AM 50.2°F10.1°C 46.5°F8.1°C 87% 6.9 mph W11.1 kmh W 9.2 mph14.8 kmh 30.13 in1020.3 mb - 0.00 in0.0 mm 0.00 in0.0 mm
05:45 AM 50.3°F10.2°C 46.6°F8.1°C 87% 4.6 mph W7.4 kmh W 10.4 mph16.7 kmh 30.13 in1020.3 mb - 0.00 in0.0 mm 0.00 in0.0 mm
05:50 AM 50.4°F10.2°C 46.7°F8.2°C 87% 4.6 mph WNW7.4 kmh WNW 4.6 mph7.4 kmh 30.13 in1020.3 mb - 0.00 in0.0 mm 0.00 in0.0 mm
05:55 AM 50.6°F10.3°C 46.9°F8.3°C 87% 5.8 mph WNW9.3 kmh WNW 11.5 mph18.5 kmh 30.13 in1020.3 mb - 0.00 in0.0 mm 0.00 in0.0 mm
06:00 AM 50.7°F10.4°C 46.7°F8.2°C 86% 5.8 mph W9.3 kmh W 10.4 mph16.7 kmh 30.13 in1020.3 mb - 0.00 in0.0 mm 0.00 in0.0 mm
06:10 AM 50.9°F10.5°C 46.9°F8.3°C 86% 6.9 mph W11.1 kmh W 9.2 mph14.8 kmh 30.13 in1020.3 mb - 0.00 in0.0 mm 0.00 in0.0 mm
06:15 AM 51.0°F10.6°C 47.0°F8.3°C 86% 5.8 mph W9.3 kmh W 8.1 mph13.0 kmh 30.13 in1020.3 mb - 0.00 in0.0 mm 0.00 in0.0 mm
06:20 AM 51.1°F10.6°C 47.1°F8.4°C 86% 3.5 mph WSW5.6 kmh WSW 11.5 mph18.5 kmh 30.13 in1020.3 mb - 0.00 in0.0 mm 0.00 in0.0 mm
06:25 AM 51.2°F10.7°C 47.2°F8.4°C 86% 4.6 mph NW7.4 kmh NW 10.4 mph16.7 kmh 30.13 in1020.3 mb - 0.00 in0.0 mm 0.00 in0.0 mm
06:30 AM 51.3°F10.7°C 47.3°F8.5°C 86% 3.5 mph W5.6 kmh W 9.2 mph14.8 kmh 30.13 in1020.3 mb - 0.00 in0.0 mm 0.00 in0.0 mm
06:35 AM 51.4°F10.8°C 47.4°F8.6°C 86% 6.9 mph W11.1 kmh W 9.2 mph14.8 kmh 30.13 in1020.3 mb - 0.00 in0.0 mm 0.00 in0.0 mm
06:40 AM 51.6°F10.9°C 47.5°F8.6°C 86% 5.8 mph WSW9.3 kmh WSW 9.2 mph14.8 kmh 30.13 in1020.3 mb - 0.00 in0.0 mm 0.00 in0.0 mm
06:45 AM 51.7°F10.9°C 47.6°F8.7°C 86% 8.1 mph WNW13.0 kmh WNW 9.2 mph14.8 kmh 30.13 in1020.3 mb - 0.00 in0.0 mm 0.00 in0.0 mm
06:50 AM 51.8°F11.0°C 47.7°F8.7°C 86% 6.9 mph W11.1 kmh W 9.2 mph14.8 kmh 30.13 in1020.3 mb - 0.00 in0.0 mm 0.00 in0.0 mm
06:55 AM 51.9°F11.1°C 47.5°F8.6°C 85% 3.5 mph W5.6 kmh W 3.5 mph5.6 kmh 30.13 in1020.3 mb - 0.00 in0.0 mm 0.00 in0.0 mm
07:00 AM 52.0°F11.1°C 47.7°F8.7°C 85% 3.5 mph WSW5.6 kmh WSW 10.4 mph16.7 kmh 30.13 in1020.3 mb - 0.00 in0.0 mm 0.00 in0.0 mm
07:10 AM 52.3°F11.3°C 47.9°F8.8°C 85% 5.8 mph W9.3 kmh W 9.2 mph14.8 kmh 30.13 in1020.3 mb - 0.00 in0.0 mm 0.00 in0.0 mm
07:15 AM 52.3°F11.3°C 47.9°F8.8°C 85% 5.8 mph WSW9.3 kmh WSW 10.4 mph16.7 kmh 30.13 in1020.3 mb - 0.00 in0.0 mm 0.00 in0.0 mm
07:20 AM 52.4°F11.3°C 48.0°F8.9°C 85% 5.8 mph WSW9.3 kmh WSW 10.4 mph16.7 kmh 30.13 in1020.3 mb - 0.00 in0.0 mm 0.00 in0.0 mm
07:25 AM 52.5°F11.4°C 48.1°F8.9°C 85% 6.9 mph W11.1 kmh W 9.2 mph14.8 kmh 30.13 in1020.3 mb - 0.00 in0.0 mm 0.00 in0.0 mm
07:30 AM 52.5°F11.4°C 48.1°F8.9°C 85% 5.8 mph W9.3 kmh W 11.5 mph18.5 kmh 30.13 in1020.3 mb - 0.00 in0.0 mm 0.00 in0.0 mm
07:35 AM 52.6°F11.4°C 48.2°F9.0°C 85% 6.9 mph NW11.1 kmh NW 11.5 mph18.5 kmh 30.13 in1020.3 mb - 0.00 in0.0 mm 0.00 in0.0 mm
07:40 AM 52.6°F11.4°C 48.2°F9.0°C 85% 5.8 mph NW9.3 kmh NW 11.5 mph18.5 kmh 30.13 in1020.3 mb - 0.00 in0.0 mm 0.00 in0.0 mm
07:45 AM 52.6°F11.4°C 48.2°F9.0°C 85% 6.9 mph W11.1 kmh W 13.8 mph22.2 kmh 30.14 in1020.7 mb - 0.00 in0.0 mm 0.00 in0.0 mm
07:50 AM 52.5°F11.4°C 48.1°F8.9°C 85% 5.8 mph WNW9.3 kmh WNW 9.2 mph14.8 kmh 30.14 in1020.7 mb - 0.00 in0.0 mm 0.00 in0.0 mm
07:55 AM 52.4°F11.3°C 48.3°F9.1°C 86% 6.9 mph WNW11.1 kmh WNW 11.5 mph18.5 kmh 30.14 in1020.7 mb - 0.00 in0.0 mm 0.00 in0.0 mm
08:00 AM 52.3°F11.3°C 48.6°F9.2°C 87% 8.1 mph W13.0 kmh W 11.5 mph18.5 kmh 30.13 in1020.3 mb - 0.00 in0.0 mm 0.00 in0.0 mm
08:10 AM 52.3°F11.3°C 48.9°F9.4°C 88% 8.1 mph W13.0 kmh W 11.5 mph18.5 kmh 30.14 in1020.7 mb - 0.00 in0.0 mm 0.00 in0.0 mm
08:15 AM 52.3°F11.3°C 48.9°F9.4°C 88% 9.2 mph W14.8 kmh W 11.5 mph18.5 kmh 30.14 in1020.7 mb - 0.00 in0.0 mm 0.00 in0.0 mm
08:20 AM 52.3°F11.3°C 48.9°F9.4°C 88% 5.8 mph WNW9.3 kmh WNW 10.4 mph16.7 kmh 30.14 in1020.7 mb - 0.00 in0.0 mm 0.00 in0.0 mm
08:25 AM 52.3°F11.3°C 48.9°F9.4°C 88% 6.9 mph W11.1 kmh W 10.4 mph16.7 kmh 30.14 in1020.7 mb - 0.00 in0.0 mm 0.00 in0.0 mm
08:30 AM 52.4°F11.3°C 48.9°F9.4°C 88% 6.9 mph W11.1 kmh W 11.5 mph18.5 kmh 30.14 in1020.7 mb - 0.00 in0.0 mm 0.00 in0.0 mm
08:35 AM 52.4°F11.3°C 48.9°F9.4°C 88% 4.6 mph WNW7.4 kmh WNW 9.2 mph14.8 kmh 30.14 in1020.7 mb - 0.00 in0.0 mm 0.00 in0.0 mm
08:40 AM 52.5°F11.4°C 49.4°F9.7°C 89% 8.1 mph WNW13.0 kmh WNW 11.5 mph18.5 kmh 30.14 in1020.7 mb - 0.00 in0.0 mm 0.00 in0.0 mm
08:45 AM 52.5°F11.4°C 49.0°F9.4°C 88% 6.9 mph W11.1 kmh W 9.2 mph14.8 kmh 30.14 in1020.7 mb - 0.00 in0.0 mm 0.00 in0.0 mm
08:50 AM 52.6°F11.4°C 49.4°F9.7°C 89% 6.9 mph W11.1 kmh W 15.0 mph24.1 kmh 30.14 in1020.7 mb - 0.00 in0.0 mm 0.00 in0.0 mm
08:55 AM 52.7°F11.5°C 49.2°F9.6°C 88% 5.8 mph W9.3 kmh W 6.9 mph11.1 kmh 30.14 in1020.7 mb - 0.00 in0.0 mm 0.00 in0.0 mm
09:00 AM 52.8°F11.6°C 49.6°F9.8°C 89% 8.1 mph W13.0 kmh W 10.4 mph16.7 kmh 30.14 in1020.7 mb - 0.00 in0.0 mm 0.00 in0.0 mm
09:10 AM 53.0°F11.7°C 49.5°F9.7°C 88% 4.6 mph NW7.4 kmh NW 4.6 mph7.4 kmh 30.14 in1020.7 mb - 0.00 in0.0 mm 0.00 in0.0 mm
09:15 AM 53.1°F11.7°C 49.6°F9.8°C 88% 6.9 mph NW11.1 kmh NW 10.4 mph16.7 kmh 30.14 in1020.7 mb - 0.00 in0.0 mm 0.00 in0.0 mm
09:20 AM 53.2°F11.8°C 50.0°F10.0°C 89% 4.6 mph W7.4 kmh W 6.9 mph11.1 kmh 30.14 in1020.7 mb - 0.00 in0.0 mm 0.00 in0.0 mm
09:25 AM 53.3°F11.8°C 49.8°F9.9°C 88% 4.6 mph WNW7.4 kmh WNW 11.5 mph18.5 kmh 30.14 in1020.7 mb - 0.00 in0.0 mm 0.00 in0.0 mm
09:30 AM 53.3°F11.8°C 49.8°F9.9°C 88% 4.6 mph WNW7.4 kmh WNW 4.6 mph7.4 kmh 30.14 in1020.7 mb - 0.00 in0.0 mm 0.00 in0.0 mm
09:35 AM 53.5°F11.9°C 50.0°F10.0°C 88% 4.6 mph WNW7.4 kmh WNW 6.9 mph11.1 kmh 30.14 in1020.7 mb - 0.00 in0.0 mm 0.00 in0.0 mm
09:40 AM 53.6°F12.0°C 50.1°F10.1°C 88% 8.1 mph WNW13.0 kmh WNW 10.4 mph16.7 kmh 30.14 in1020.7 mb - 0.00 in0.0 mm 0.00 in0.0 mm
09:45 AM 53.6°F12.0°C 49.8°F9.9°C 87% 6.9 mph W11.1 kmh W 10.4 mph16.7 kmh 30.14 in1020.7 mb - 0.00 in0.0 mm 0.00 in0.0 mm
09:50 AM 53.7°F12.1°C 49.9°F9.9°C 87% 3.5 mph NW5.6 kmh NW 5.8 mph9.3 kmh 30.14 in1020.7 mb - 0.00 in0.0 mm 0.00 in0.0 mm
09:55 AM 53.8°F12.1°C 50.0°F10.0°C 87% 4.6 mph WNW7.4 kmh WNW 5.8 mph9.3 kmh 30.14 in1020.7 mb - 0.00 in0.0 mm 0.00 in0.0 mm
10:00 AM 53.9°F12.2°C 49.8°F9.9°C 86% 6.9 mph NW11.1 kmh NW 10.4 mph16.7 kmh 30.14 in1020.7 mb - 0.00 in0.0 mm 0.00 in0.0 mm
10:10 AM 54.1°F12.3°C 49.7°F9.8°C 85% 4.6 mph NW7.4 kmh NW 8.1 mph13.0 kmh 30.14 in1020.7 mb - 0.00 in0.0 mm 0.00 in0.0 mm
10:15 AM 54.2°F12.3°C 49.8°F9.9°C 85% 5.8 mph NW9.3 kmh NW 9.2 mph14.8 kmh 30.14 in1020.7 mb - 0.00 in0.0 mm 0.00 in0.0 mm
10:20 AM 54.4°F12.4°C 49.9°F9.9°C 85% 4.6 mph NNW7.4 kmh NNW 8.1 mph13.0 kmh 30.14 in1020.7 mb - 0.00 in0.0 mm 0.00 in0.0 mm
10:25 AM 54.5°F12.5°C 49.8°F9.9°C 84% 4.6 mph NW7.4 kmh NW 6.9 mph11.1 kmh 30.14 in1020.7 mb - 0.00 in0.0 mm 0.00 in0.0 mm
10:30 AM 54.8°F12.7°C 49.7°F9.8°C 83% 6.9 mph WNW11.1 kmh WNW 9.2 mph14.8 kmh 30.14 in1020.7 mb - 0.00 in0.0 mm 0.00 in0.0 mm
10:35 AM 54.9°F12.7°C 49.5°F9.7°C 82% 5.8 mph WNW9.3 kmh WNW 5.8 mph9.3 kmh 30.14 in1020.7 mb - 0.00 in0.0 mm 0.00 in0.0 mm
10:40 AM 55.1°F12.8°C 49.7°F9.8°C 82% 2.3 mph NW3.7 kmh NW 3.5 mph5.6 kmh 30.14 in1020.7 mb - 0.00 in0.0 mm 0.00 in0.0 mm
10:45 AM 55.3°F12.9°C 49.6°F9.8°C 81% 5.8 mph W9.3 kmh W 9.2 mph14.8 kmh 30.14 in1020.7 mb - 0.00 in0.0 mm 0.00 in0.0 mm
10:50 AM 55.5°F13.1°C 49.4°F9.7°C 80% 4.6 mph NW7.4 kmh NW 8.1 mph13.0 kmh 30.14 in1020.7 mb - 0.00 in0.0 mm 0.00 in0.0 mm
10:55 AM 55.8°F13.2°C 49.7°F9.8°C 80% 5.8 mph W9.3 kmh W 10.4 mph16.7 kmh 30.14 in1020.7 mb - 0.00 in0.0 mm 0.00 in0.0 mm
11:00 AM 56.0°F13.3°C 49.6°F9.8°C 79% 5.8 mph WNW9.3 kmh WNW 10.4 mph16.7 kmh 30.14 in1020.7 mb - 0.00 in0.0 mm 0.00 in0.0 mm
11:10 AM 56.3°F13.5°C 49.2°F9.6°C 77% 6.9 mph WNW11.1 kmh WNW 12.7 mph20.4 kmh 30.14 in1020.7 mb - 0.00 in0.0 mm 0.00 in0.0 mm
11:15 AM 56.5°F13.6°C 49.4°F9.7°C 77% 6.9 mph NW11.1 kmh NW 11.5 mph18.5 kmh 30.14 in1020.7 mb - 0.00 in0.0 mm 0.00 in0.0 mm
11:20 AM 56.7°F13.7°C 49.2°F9.6°C 76% 6.9 mph W11.1 kmh W 19.6 mph31.5 kmh 30.14 in1020.7 mb - 0.00 in0.0 mm 0.00 in0.0 mm
11:25 AM 56.7°F13.7°C 48.5°F9.2°C 74% 8.1 mph WNW13.0 kmh WNW 15.0 mph24.1 kmh 30.14 in1020.7 mb - 0.00 in0.0 mm 0.00 in0.0 mm
11:30 AM 56.7°F13.7°C 48.5°F9.2°C 74% 9.2 mph NW14.8 kmh NW 15.0 mph24.1 kmh 30.14 in1020.7 mb - 0.00 in0.0 mm 0.00 in0.0 mm
11:35 AM 56.7°F13.7°C 48.5°F9.2°C 74% 9.2 mph NW14.8 kmh NW 12.7 mph20.4 kmh 30.14 in1020.7 mb - 0.00 in0.0 mm 0.00 in0.0 mm
11:40 AM 56.9°F13.8°C 49.0°F9.4°C 75% 9.2 mph W14.8 kmh W 11.5 mph18.5 kmh 30.14 in1020.7 mb - 0.00 in0.0 mm 0.00 in0.0 mm
11:45 AM 56.9°F13.8°C 49.1°F9.5°C 75% 5.8 mph WSW9.3 kmh WSW 13.8 mph22.2 kmh 30.14 in1020.7 mb - 0.00 in0.0 mm 0.00 in0.0 mm
11:50 AM 57.1°F13.9°C 48.9°F9.4°C 74% 6.9 mph WNW11.1 kmh WNW 11.5 mph18.5 kmh 30.14 in1020.7 mb - 0.00 in0.0 mm 0.00 in0.0 mm
11:55 AM 57.2°F14.0°C 49.0°F9.4°C 74% 3.5 mph NW5.6 kmh NW 6.9 mph11.1 kmh 30.13 in1020.3 mb - 0.00 in0.0 mm 0.00 in0.0 mm
12:00 PM 57.5°F14.2°C 49.3°F9.6°C 74% 3.5 mph NW5.6 kmh NW 8.1 mph13.0 kmh 30.13 in1020.3 mb - 0.00 in0.0 mm 0.00 in0.0 mm
12:10 PM 57.7°F14.3°C 49.1°F9.5°C 73% 5.8 mph W9.3 kmh W 8.1 mph13.0 kmh 30.13 in1020.3 mb - 0.00 in0.0 mm 0.00 in0.0 mm
12:15 PM 57.7°F14.3°C 49.1°F9.5°C 73% 4.6 mph WNW7.4 kmh WNW 9.2 mph14.8 kmh 30.13 in1020.3 mb - 0.00 in0.0 mm 0.00 in0.0 mm
12:20 PM 57.7°F14.3°C 49.5°F9.7°C 74% 9.2 mph WNW14.8 kmh WNW 11.5 mph18.5 kmh 30.14 in1020.7 mb - 0.00 in0.0 mm 0.00 in0.0 mm
12:25 PM 57.1°F13.9°C 49.6°F9.8°C 76% 5.8 mph NW9.3 kmh NW 13.8 mph22.2 kmh 30.14 in1020.7 mb - 0.00 in0.0 mm 0.00 in0.0 mm
12:30 PM 56.8°F13.8°C 49.7°F9.8°C 77% 5.8 mph W9.3 kmh W 9.2 mph14.8 kmh 30.14 in1020.7 mb - 0.00 in0.0 mm 0.00 in0.0 mm
12:35 PM 56.8°F13.8°C 49.7°F9.8°C 77% 5.8 mph W9.3 kmh W 10.4 mph16.7 kmh 30.13 in1020.3 mb - 0.00 in0.0 mm 0.00 in0.0 mm
12:40 PM 57.0°F13.9°C 49.9°F9.9°C 77% 3.5 mph W5.6 kmh W 6.9 mph11.1 kmh 30.13 in1020.3 mb - 0.00 in0.0 mm 0.00 in0.0 mm
12:45 PM 57.1°F13.9°C 49.9°F9.9°C 77% 6.9 mph W11.1 kmh W 10.4 mph16.7 kmh 30.14 in1020.7 mb - 0.00 in0.0 mm 0.00 in0.0 mm
12:50 PM 57.0°F13.9°C 50.5°F10.3°C 79% 8.1 mph WSW13.0 kmh WSW 12.7 mph20.4 kmh 30.13 in1020.3 mb - 0.00 in0.0 mm 0.00 in0.0 mm
12:55 PM 56.9°F13.8°C 50.5°F10.3°C 79% 5.8 mph WSW9.3 kmh WSW 9.2 mph14.8 kmh 30.13 in1020.3 mb - 0.00 in0.0 mm 0.00 in0.0 mm
01:00 PM 57.0°F13.9°C 50.8°F10.4°C 80% 5.8 mph WSW9.3 kmh WSW 10.4 mph16.7 kmh 30.13 in1020.3 mb - 0.00 in0.0 mm 0.00 in0.0 mm
01:10 PM 57.4°F14.1°C 50.9°F10.5°C 79% 4.6 mph WNW7.4 kmh WNW 10.4 mph16.7 kmh 30.13 in1020.3 mb - 0.00 in0.0 mm 0.00 in0.0 mm
01:15 PM 57.6°F14.2°C 50.5°F10.3°C 77% 2.3 mph W3.7 kmh W 4.6 mph7.4 kmh 30.13 in1020.3 mb - 0.00 in0.0 mm 0.00 in0.0 mm
01:20 PM 57.8°F14.3°C 50.7°F10.4°C 77% 4.6 mph WNW7.4 kmh WNW 5.8 mph9.3 kmh 30.13 in1020.3 mb - 0.00 in0.0 mm 0.00 in0.0 mm
01:25 PM 57.9°F14.4°C 50.4°F10.2°C 76% 9.2 mph WSW14.8 kmh WSW 12.7 mph20.4 kmh 30.13 in1020.3 mb - 0.00 in0.0 mm 0.00 in0.0 mm
01:30 PM 57.8°F14.3°C 50.3°F10.2°C 76% 6.9 mph W11.1 kmh W 9.2 mph14.8 kmh 30.13 in1020.3 mb - 0.00 in0.0 mm 0.00 in0.0 mm
01:35 PM 57.8°F14.3°C 50.6°F10.3°C 77% 5.8 mph W9.3 kmh W 9.2 mph14.8 kmh 30.12 in1020.0 mb - 0.00 in0.0 mm 0.00 in0.0 mm
01:40 PM 57.9°F14.4°C 50.7°F10.4°C 77% 4.6 mph W7.4 kmh W 9.2 mph14.8 kmh 30.12 in1020.0 mb - 0.00 in0.0 mm 0.00 in0.0 mm
01:45 PM 57.9°F14.4°C 50.7°F10.4°C 77% 5.8 mph W9.3 kmh W 8.1 mph13.0 kmh 30.12 in1020.0 mb - 0.00 in0.0 mm 0.00 in0.0 mm
01:50 PM 57.9°F14.4°C 51.1°F10.6°C 78% 5.8 mph WNW9.3 kmh WNW 6.9 mph11.1 kmh 30.12 in1020.0 mb - 0.00 in0.0 mm 0.00 in0.0 mm
01:55 PM 57.9°F14.4°C 51.4°F10.8°C 79% 8.1 mph NW13.0 kmh NW 12.7 mph20.4 kmh 30.12 in1020.0 mb - 0.00 in0.0 mm 0.00 in0.0 mm
02:00 PM 57.7°F14.3°C 51.2°F10.7°C 79% 6.9 mph NW11.1 kmh NW 18.4 mph29.6 kmh 30.13 in1020.3 mb - 0.00 in0.0 mm 0.00 in0.0 mm
02:10 PM 56.9°F13.8°C 51.1°F10.6°C 81% 8.1 mph NW13.0 kmh NW 12.7 mph20.4 kmh 30.12 in1020.0 mb - 0.00 in0.0 mm 0.00 in0.0 mm
02:15 PM 57.0°F13.9°C 50.9°F10.5°C 80% 4.6 mph WNW7.4 kmh WNW 11.5 mph18.5 kmh 30.12 in1020.0 mb - 0.00 in0.0 mm 0.00 in0.0 mm
02:20 PM 57.3°F14.1°C 51.2°F10.7°C 80% 3.5 mph WNW5.6 kmh WNW 8.1 mph13.0 kmh 30.12 in1020.0 mb - 0.00 in0.0 mm 0.00 in0.0 mm
02:25 PM 57.6°F14.2°C 51.1°F10.6°C 79% 9.2 mph WNW14.8 kmh WNW 12.7 mph20.4 kmh 30.12 in1020.0 mb - 0.00 in0.0 mm 0.00 in0.0 mm
02:30 PM 57.7°F14.3°C 51.2°F10.7°C 79% 10.4 mph W16.7 kmh W 11.5 mph18.5 kmh 30.12 in1020.0 mb - 0.00 in0.0 mm 0.00 in0.0 mm
02:35 PM 57.8°F14.3°C 51.0°F10.6°C 78% 6.9 mph WNW11.1 kmh WNW 9.2 mph14.8 kmh 30.12 in1020.0 mb - 0.00 in0.0 mm 0.00 in0.0 mm
02:40 PM 57.8°F14.3°C 51.3°F10.7°C 79% 8.1 mph W13.0 kmh W 12.7 mph20.4 kmh 30.12 in1020.0 mb - 0.00 in0.0 mm 0.00 in0.0 mm
02:45 PM 57.8°F14.3°C 51.3°F10.7°C 79% 6.9 mph NW11.1 kmh NW 10.4 mph16.7 kmh 30.12 in1020.0 mb - 0.00 in0.0 mm 0.00 in0.0 mm
02:50 PM 57.6°F14.2°C 51.4°F10.8°C 80% 5.8 mph W9.3 kmh W 8.1 mph13.0 kmh 30.12 in1020.0 mb - 0.00 in0.0 mm 0.00 in0.0 mm
02:55 PM 57.5°F14.2°C 51.4°F10.8°C 80% 8.1 mph NW13.0 kmh NW 11.5 mph18.5 kmh 30.12 in1020.0 mb - 0.00 in0.0 mm 0.00 in0.0 mm
03:00 PM 57.3°F14.1°C 51.2°F10.7°C 80% 9.2 mph NW14.8 kmh NW 13.8 mph22.2 kmh 30.12 in1020.0 mb - 0.00 in0.0 mm 0.00 in0.0 mm
03:10 PM 57.0°F13.9°C 51.9°F11.1°C 83% 6.9 mph W11.1 kmh W 9.2 mph14.8 kmh 30.11 in1019.6 mb - 0.00 in0.0 mm 0.00 in0.0 mm
03:15 PM 57.1°F13.9°C 52.0°F11.1°C 83% 6.9 mph NW11.1 kmh NW 9.2 mph14.8 kmh 30.11 in1019.6 mb - 0.00 in0.0 mm 0.00 in0.0 mm
03:20 PM 57.2°F14.0°C 52.1°F11.2°C 83% 8.1 mph NW13.0 kmh NW 11.5 mph18.5 kmh 30.12 in1020.0 mb - 0.00 in0.0 mm 0.00 in0.0 mm
03:25 PM 57.3°F14.1°C 52.2°F11.2°C 83% 5.8 mph WNW9.3 kmh WNW 6.9 mph11.1 kmh 30.12 in1020.0 mb - 0.00 in0.0 mm 0.00 in0.0 mm
03:30 PM 57.5°F14.2°C 52.4°F11.3°C 83% 2.3 mph NW3.7 kmh NW 10.4 mph16.7 kmh 30.12 in1020.0 mb - 0.00 in0.0 mm 0.00 in0.0 mm
03:35 PM 57.6°F14.2°C 52.1°F11.2°C 82% 9.2 mph NW14.8 kmh NW 11.5 mph18.5 kmh 30.12 in1020.0 mb - 0.00 in0.0 mm 0.00 in0.0 mm
03:40 PM 57.6°F14.2°C 52.5°F11.4°C 83% 5.8 mph NW9.3 kmh NW 10.4 mph16.7 kmh 30.12 in1020.0 mb - 0.00 in0.0 mm 0.00 in0.0 mm
03:45 PM 57.5°F14.2°C 52.4°F11.3°C 83% 8.1 mph NW13.0 kmh NW 10.4 mph16.7 kmh 30.11 in1019.6 mb - 0.00 in0.0 mm 0.00 in0.0 mm
03:50 PM 57.2°F14.0°C 52.4°F11.3°C 84% 6.9 mph WNW11.1 kmh WNW 9.2 mph14.8 kmh 30.11 in1019.6 mb - 0.00 in0.0 mm 0.00 in0.0 mm
03:55 PM 56.8°F13.8°C 52.3°F11.3°C 85% 6.9 mph NW11.1 kmh NW 9.2 mph14.8 kmh 30.11 in1019.6 mb - 0.00 in0.0 mm 0.00 in0.0 mm
04:00 PM 56.5°F13.6°C 52.4°F11.3°C 86% 4.6 mph WNW7.4 kmh WNW 9.2 mph14.8 kmh 30.11 in1019.6 mb - 0.00 in0.0 mm 0.00 in0.0 mm
04:10 PM 56.4°F13.6°C 52.9°F11.6°C 88% 5.8 mph WSW9.3 kmh WSW 9.2 mph14.8 kmh 30.12 in1020.0 mb - 0.00 in0.0 mm 0.00 in0.0 mm
04:15 PM 56.3°F13.5°C 52.8°F11.6°C 88% 6.9 mph W11.1 kmh W 11.5 mph18.5 kmh 30.11 in1019.6 mb - 0.00 in0.0 mm 0.00 in0.0 mm
04:20 PM 56.3°F13.5°C 53.1°F11.7°C 89% 6.9 mph WSW11.1 kmh WSW 12.7 mph20.4 kmh 30.11 in1019.6 mb - 0.00 in0.0 mm 0.00 in0.0 mm
04:25 PM 56.2°F13.4°C 52.7°F11.5°C 88% 6.9 mph W11.1 kmh W 8.1 mph13.0 kmh 30.11 in1019.6 mb - 0.00 in0.0 mm 0.00 in0.0 mm
04:30 PM 56.1°F13.4°C 52.6°F11.4°C 88% 3.5 mph W5.6 kmh W 6.9 mph11.1 kmh 30.11 in1019.6 mb - 0.00 in0.0 mm 0.00 in0.0 mm
04:35 PM 56.2°F13.4°C 52.7°F11.5°C 88% 8.1 mph NW13.0 kmh NW 11.5 mph18.5 kmh 30.11 in1019.6 mb - 0.00 in0.0 mm 0.00 in0.0 mm
04:40 PM 56.2°F13.4°C 52.7°F11.5°C 88% 9.2 mph W14.8 kmh W 11.5 mph18.5 kmh 30.11 in1019.6 mb - 0.00 in0.0 mm 0.00 in0.0 mm
04:45 PM 56.2°F13.4°C 53.0°F11.7°C 89% 5.8 mph WNW9.3 kmh WNW 8.1 mph13.0 kmh 30.11 in1019.6 mb - 0.00 in0.0 mm 0.00 in0.0 mm
04:50 PM 56.2°F13.4°C 53.3°F11.8°C 90% 8.1 mph WSW13.0 kmh WSW 11.5 mph18.5 kmh 30.11 in1019.6 mb - 0.00 in0.0 mm 0.00 in0.0 mm
04:55 PM 56.0°F13.3°C 53.1°F11.7°C 90% 5.8 mph WSW9.3 kmh WSW 8.1 mph13.0 kmh 30.11 in1019.6 mb - 0.00 in0.0 mm 0.00 in0.0 mm
05:00 PM 56.0°F13.3°C 53.1°F11.7°C 90% 3.5 mph W5.6 kmh W 5.8 mph9.3 kmh 30.10 in1019.3 mb - 0.00 in0.0 mm 0.00 in0.0 mm
05:10 PM 56.0°F13.3°C 53.4°F11.9°C 91% 4.6 mph W7.4 kmh W 11.5 mph18.5 kmh 30.10 in1019.3 mb - 0.00 in0.0 mm 0.00 in0.0 mm
05:15 PM 56.0°F13.3°C 53.4°F11.9°C 91% 6.9 mph W11.1 kmh W 8.1 mph13.0 kmh 30.10 in1019.3 mb - 0.00 in0.0 mm 0.00 in0.0 mm
05:20 PM 56.0°F13.3°C 53.4°F11.9°C 91% 8.1 mph W13.0 kmh W 12.7 mph20.4 kmh 30.10 in1019.3 mb - 0.00 in0.0 mm 0.00 in0.0 mm
05:25 PM 56.0°F13.3°C 53.4°F11.9°C 91% 5.8 mph W9.3 kmh W 10.4 mph16.7 kmh 30.10 in1019.3 mb - 0.00 in0.0 mm 0.00 in0.0 mm
05:30 PM 56.0°F13.3°C 53.4°F11.9°C 91% 5.8 mph W9.3 kmh W 9.2 mph14.8 kmh 30.10 in1019.3 mb - 0.00 in0.0 mm 0.00 in0.0 mm
05:35 PM 56.0°F13.3°C 53.4°F11.9°C 91% 6.9 mph WSW11.1 kmh WSW 8.1 mph13.0 kmh 30.10 in1019.3 mb - 0.00 in0.0 mm 0.00 in0.0 mm
05:40 PM 56.0°F13.3°C 53.4°F11.9°C 91% 8.1 mph W13.0 kmh W 10.4 mph16.7 kmh 30.10 in1019.3 mb - 0.00 in0.0 mm 0.00 in0.0 mm
05:45 PM 56.0°F13.3°C 53.4°F11.9°C 91% 6.9 mph WSW11.1 kmh WSW 9.2 mph14.8 kmh 30.10 in1019.3 mb - 0.00 in0.0 mm 0.00 in0.0 mm
05:50 PM 56.0°F13.3°C 53.4°F11.9°C 91% 3.5 mph WSW5.6 kmh WSW 3.5 mph5.6 kmh 30.10 in1019.3 mb - 0.00 in0.0 mm 0.00 in0.0 mm
05:55 PM 56.0°F13.3°C 53.7°F12.1°C 92% 4.6 mph W7.4 kmh W 8.1 mph13.0 kmh 30.10 in1019.3 mb - 0.00 in0.0 mm 0.00 in0.0 mm
06:00 PM 56.1°F13.4°C 53.8°F12.1°C 92% 3.5 mph W5.6 kmh W 10.4 mph16.7 kmh 30.10 in1019.3 mb - 0.00 in0.0 mm 0.00 in0.0 mm
06:10 PM 56.1°F13.4°C 53.8°F12.1°C 92% 4.6 mph W7.4 kmh W 8.1 mph13.0 kmh 30.10 in1019.3 mb - 0.00 in0.0 mm 0.00 in0.0 mm
06:15 PM 56.1°F13.4°C 53.8°F12.1°C 92% 8.1 mph W13.0 kmh W 11.5 mph18.5 kmh 30.10 in1019.3 mb - 0.00 in0.0 mm 0.00 in0.0 mm
06:20 PM 56.1°F13.4°C 53.8°F12.1°C 92% 5.8 mph W9.3 kmh W 11.5 mph18.5 kmh 30.10 in1019.3 mb - 0.00 in0.0 mm 0.00 in0.0 mm
06:25 PM 56.1°F13.4°C 53.8°F12.1°C 92% 3.5 mph WSW5.6 kmh WSW 8.1 mph13.0 kmh 30.10 in1019.3 mb - 0.01 in0.3 mm 0.01 in0.3 mm
06:30 PM 56.1°F13.4°C 53.8°F12.1°C 92% 2.3 mph W3.7 kmh W 6.9 mph11.1 kmh 30.10 in1019.3 mb - 0.01 in0.3 mm 0.01 in0.3 mm
06:35 PM 56.0°F13.3°C 53.7°F12.1°C 92% 4.6 mph NW7.4 kmh NW 5.8 mph9.3 kmh 30.10 in1019.3 mb - 0.01 in0.3 mm 0.01 in0.3 mm
06:40 PM 56.0°F13.3°C 53.7°F12.1°C 92% 3.5 mph W5.6 kmh W 9.2 mph14.8 kmh 30.10 in1019.3 mb - 0.02 in0.5 mm 0.02 in0.5 mm
06:45 PM 56.0°F13.3°C 53.7°F12.1°C 92% 2.3 mph NNW3.7 kmh NNW 9.2 mph14.8 kmh 30.10 in1019.3 mb - 0.02 in0.5 mm 0.02 in0.5 mm
06:50 PM 55.9°F13.3°C 53.9°F12.2°C 93% 2.3 mph NW3.7 kmh NW 3.5 mph5.6 kmh 30.10 in1019.3 mb - 0.02 in0.5 mm 0.02 in0.5 mm
06:55 PM 55.9°F13.3°C 53.9°F12.2°C 93% 3.5 mph NW5.6 kmh NW 5.8 mph9.3 kmh 30.10 in1019.3 mb - 0.02 in0.5 mm 0.02 in0.5 mm
07:00 PM 55.9°F13.3°C 53.9°F12.2°C 93% 2.3 mph NW3.7 kmh NW 3.5 mph5.6 kmh 30.10 in1019.3 mb - 0.02 in0.5 mm 0.02 in0.5 mm
07:10 PM 55.9°F13.3°C 53.9°F12.2°C 93% 5.8 mph WNW9.3 kmh WNW 8.1 mph13.0 kmh 30.09 in1019.0 mb - 0.02 in0.5 mm 0.02 in0.5 mm
07:15 PM 55.8°F13.2°C 53.8°F12.1°C 93% 4.6 mph NW7.4 kmh NW 6.9 mph11.1 kmh 30.09 in1019.0 mb - 0.02 in0.5 mm 0.02 in0.5 mm
07:20 PM 55.9°F13.3°C 53.9°F12.2°C 93% 3.5 mph NW5.6 kmh NW 6.9 mph11.1 kmh 30.09 in1019.0 mb - 0.02 in0.5 mm 0.02 in0.5 mm
07:25 PM 55.9°F13.3°C 53.9°F12.2°C 93% 4.6 mph NW7.4 kmh NW 8.1 mph13.0 kmh 30.09 in1019.0 mb - 0.01 in0.3 mm 0.02 in0.5 mm
07:30 PM 55.9°F13.3°C 53.9°F12.2°C 93% 5.8 mph WNW9.3 kmh WNW 10.4 mph16.7 kmh 30.09 in1019.0 mb - 0.01 in0.3 mm 0.02 in0.5 mm
07:35 PM 55.9°F13.3°C 53.9°F12.2°C 93% 4.6 mph NW7.4 kmh NW 5.8 mph9.3 kmh 30.09 in1019.0 mb - 0.01 in0.3 mm 0.02 in0.5 mm
07:40 PM 55.9°F13.3°C 53.9°F12.2°C 93% 4.6 mph WNW7.4 kmh WNW 6.9 mph11.1 kmh 30.09 in1019.0 mb - 0.00 in0.0 mm 0.02 in0.5 mm
07:45 PM 55.9°F13.3°C 53.9°F12.2°C 93% 2.3 mph NW3.7 kmh NW 3.5 mph5.6 kmh 30.09 in1019.0 mb - 0.00 in0.0 mm 0.02 in0.5 mm
07:50 PM 55.9°F13.3°C 53.9°F12.2°C 93% 4.6 mph NW7.4 kmh NW 8.1 mph13.0 kmh 30.09 in1019.0 mb - 0.00 in0.0 mm 0.02 in0.5 mm
07:55 PM 55.8°F13.2°C 53.8°F12.1°C 93% 6.9 mph WNW11.1 kmh WNW 10.4 mph16.7 kmh 30.09 in1019.0 mb - 0.00 in0.0 mm 0.02 in0.5 mm
08:00 PM 55.8°F13.2°C 53.8°F12.1°C 93% 4.6 mph NW7.4 kmh NW 4.6 mph7.4 kmh 30.09 in1019.0 mb - 0.00 in0.0 mm 0.02 in0.5 mm
08:10 PM 55.6°F13.1°C 53.7°F12.1°C 93% 3.5 mph NW5.6 kmh NW 4.6 mph7.4 kmh 30.09 in1019.0 mb - 0.00 in0.0 mm 0.02 in0.5 mm
08:15 PM 55.6°F13.1°C 53.6°F12.0°C 93% 3.5 mph WNW5.6 kmh WNW 8.1 mph13.0 kmh 30.09 in1019.0 mb - 0.00 in0.0 mm 0.02 in0.5 mm
08:20 PM 55.6°F13.1°C 53.6°F12.0°C 93% 3.5 mph NW5.6 kmh NW 4.6 mph7.4 kmh 30.09 in1019.0 mb - 0.00 in0.0 mm 0.02 in0.5 mm
08:25 PM 55.5°F13.1°C 53.5°F11.9°C 93% 5.8 mph WNW9.3 kmh WNW 9.2 mph14.8 kmh 30.10 in1019.3 mb - 0.00 in0.0 mm 0.02 in0.5 mm
08:30 PM 55.5°F13.1°C 53.5°F11.9°C 93% 5.8 mph WNW9.3 kmh WNW 9.2 mph14.8 kmh 30.10 in1019.3 mb - 0.00 in0.0 mm 0.02 in0.5 mm
08:35 PM 55.5°F13.1°C 53.5°F11.9°C 93% 5.8 mph NW9.3 kmh NW 9.2 mph14.8 kmh 30.10 in1019.3 mb - 0.00 in0.0 mm 0.02 in0.5 mm
08:40 PM 55.5°F13.1°C 53.5°F11.9°C 93% 4.6 mph NW7.4 kmh NW 9.2 mph14.8 kmh 30.10 in1019.3 mb - 0.00 in0.0 mm 0.02 in0.5 mm
08:45 PM 55.5°F13.1°C 53.5°F11.9°C 93% 4.6 mph NW7.4 kmh NW 10.4 mph16.7 kmh 30.10 in1019.3 mb - 0.00 in0.0 mm 0.02 in0.5 mm
08:50 PM 55.5°F13.1°C 53.5°F11.9°C 93% 5.8 mph NW9.3 kmh NW 9.2 mph14.8 kmh 30.10 in1019.3 mb - 0.00 in0.0 mm 0.02 in0.5 mm
08:55 PM 55.4°F13.0°C 53.4°F11.9°C 93% 5.8 mph NW9.3 kmh NW 9.2 mph14.8 kmh 30.10 in1019.3 mb - 0.00 in0.0 mm 0.02 in0.5 mm
09:00 PM 55.4°F13.0°C 53.4°F11.9°C 93% 4.6 mph NW7.4 kmh NW 5.8 mph9.3 kmh 30.10 in1019.3 mb - 0.00 in0.0 mm 0.02 in0.5 mm
09:10 PM 55.3°F12.9°C 53.3°F11.8°C 93% 8.1 mph NW13.0 kmh NW 11.5 mph18.5 kmh 30.10 in1019.3 mb - 0.00 in0.0 mm 0.02 in0.5 mm
09:15 PM 55.3°F12.9°C 53.3°F11.8°C 93% 4.6 mph NW7.4 kmh NW 9.2 mph14.8 kmh 30.10 in1019.3 mb - 0.00 in0.0 mm 0.02 in0.5 mm
09:20 PM 55.2°F12.9°C 53.2°F11.8°C 93% 3.5 mph NW5.6 kmh NW 5.8 mph9.3 kmh 30.11 in1019.6 mb - 0.00 in0.0 mm 0.02 in0.5 mm
09:25 PM 55.2°F12.9°C 53.2°F11.8°C 93% 4.6 mph W7.4 kmh W 6.9 mph11.1 kmh 30.11 in1019.6 mb - 0.00 in0.0 mm 0.02 in0.5 mm
09:30 PM 55.2°F12.9°C 53.2°F11.8°C 93% 3.5 mph WNW5.6 kmh WNW 3.5 mph5.6 kmh 30.10 in1019.3 mb - 0.00 in0.0 mm 0.02 in0.5 mm
09:35 PM 55.2°F12.9°C 53.2°F11.8°C 93% 5.8 mph NW9.3 kmh NW 11.5 mph18.5 kmh 30.10 in1019.3 mb - 0.00 in0.0 mm 0.02 in0.5 mm
09:40 PM 55.2°F12.9°C 53.2°F11.8°C 93% 5.8 mph WNW9.3 kmh WNW 9.2 mph14.8 kmh 30.11 in1019.6 mb - 0.00 in0.0 mm 0.02 in0.5 mm
09:45 PM 55.1°F12.8°C 53.1°F11.7°C 93% 8.1 mph NW13.0 kmh NW 11.5 mph18.5 kmh 30.11 in1019.6 mb - 0.00 in0.0 mm 0.02 in0.5 mm
09:50 PM 55.0°F12.8°C 53.0°F11.7°C 93% 8.1 mph NW13.0 kmh NW 8.1 mph13.0 kmh 30.11 in1019.6 mb - 0.00 in0.0 mm 0.02 in0.5 mm
09:55 PM 55.0°F12.8°C 53.0°F11.7°C 93% 4.6 mph NW7.4 kmh NW 9.2 mph14.8 kmh 30.11 in1019.6 mb - 0.00 in0.0 mm 0.02 in0.5 mm
10:00 PM 55.0°F12.8°C 53.0°F11.7°C 93% 3.5 mph NW5.6 kmh NW 8.1 mph13.0 kmh 30.11 in1019.6 mb - 0.01 in0.3 mm 0.02 in0.5 mm
10:10 PM 54.9°F12.7°C 52.9°F11.6°C 93% 3.5 mph NW5.6 kmh NW 4.6 mph7.4 kmh 30.11 in1019.6 mb - 0.01 in0.3 mm 0.02 in0.5 mm
10:15 PM 54.9°F12.7°C 52.9°F11.6°C 93% 2.3 mph NW3.7 kmh NW 3.5 mph5.6 kmh 30.11 in1019.6 mb - 0.01 in0.3 mm 0.02 in0.5 mm
10:20 PM 54.8°F12.7°C 52.8°F11.6°C 93% 2.3 mph WNW3.7 kmh WNW 6.9 mph11.1 kmh 30.11 in1019.6 mb - 0.01 in0.3 mm 0.02 in0.5 mm
10:25 PM 54.8°F12.7°C 53.1°F11.7°C 94% 3.5 mph NW5.6 kmh NW 3.5 mph5.6 kmh 30.11 in1019.6 mb - 0.01 in0.3 mm 0.02 in0.5 mm
10:30 PM 54.8°F12.7°C 53.1°F11.7°C 94% 6.9 mph NW11.1 kmh NW 9.2 mph14.8 kmh 30.11 in1019.6 mb - 0.01 in0.3 mm 0.02 in0.5 mm
10:35 PM 54.7°F12.6°C 53.0°F11.7°C 94% 5.8 mph NW9.3 kmh NW 9.2 mph14.8 kmh 30.11 in1019.6 mb - 0.01 in0.3 mm 0.02 in0.5 mm
10:40 PM 54.7°F12.6°C 53.0°F11.7°C 94% 5.8 mph NW9.3 kmh NW 5.8 mph9.3 kmh 30.11 in1019.6 mb - 0.01 in0.3 mm 0.02 in0.5 mm
10:45 PM 54.6°F12.6°C 52.9°F11.6°C 94% 5.8 mph NW9.3 kmh NW 8.1 mph13.0 kmh 30.11 in1019.6 mb - 0.01 in0.3 mm 0.02 in0.5 mm
10:50 PM 54.5°F12.5°C 52.6°F11.4°C 93% 4.6 mph NW7.4 kmh NW 8.1 mph13.0 kmh 30.11 in1019.6 mb - 0.01 in0.3 mm 0.02 in0.5 mm
10:55 PM 54.5°F12.5°C 52.5°F11.4°C 93% 3.5 mph NNW5.6 kmh NNW 5.8 mph9.3 kmh 30.11 in1019.6 mb - 0.01 in0.3 mm 0.02 in0.5 mm
11:00 PM 54.5°F12.5°C 52.5°F11.4°C 93% 2.3 mph NW3.7 kmh NW 4.6 mph7.4 kmh 30.11 in1019.6 mb - 0.00 in0.0 mm 0.33 in8.4 mm
11:10 PM 54.5°F12.5°C 52.5°F11.4°C 93% 1.1 mph NW1.8 kmh NW 3.5 mph5.6 kmh 30.11 in1019.6 mb - 0.00 in0.0 mm 0.33 in8.4 mm
11:15 PM 54.5°F12.5°C 52.5°F11.4°C 93% 2.3 mph NW3.7 kmh NW 3.5 mph5.6 kmh 30.11 in1019.6 mb - 0.00 in0.0 mm 0.33 in8.4 mm
11:20 PM 54.4°F12.4°C 52.4°F11.3°C 93% 3.5 mph NW5.6 kmh NW 8.1 mph13.0 kmh 30.11 in1019.6 mb - 0.00 in0.0 mm 0.33 in8.4 mm
11:25 PM 54.4°F12.4°C 52.4°F11.3°C 93% 4.6 mph WNW7.4 kmh WNW 9.2 mph14.8 kmh 30.11 in1019.6 mb - 0.00 in0.0 mm 0.33 in8.4 mm
11:30 PM 54.3°F12.4°C 52.3°F11.3°C 93% 4.6 mph WNW7.4 kmh WNW 6.9 mph11.1 kmh 30.11 in1019.6 mb - 0.00 in0.0 mm 0.33 in8.4 mm
11:35 PM 54.4°F12.4°C 52.4°F11.3°C 93% 2.3 mph WNW3.7 kmh WNW 3.5 mph5.6 kmh 30.11 in1019.6 mb - 0.00 in0.0 mm 0.33 in8.4 mm
11:40 PM 54.4°F12.4°C 52.4°F11.3°C 93% 3.5 mph NW5.6 kmh NW 4.6 mph7.4 kmh 30.11 in1019.6 mb - 0.00 in0.0 mm 0.33 in8.4 mm
11:45 PM 54.4°F12.4°C 52.4°F11.3°C 93% 5.8 mph NW9.3 kmh NW 8.1 mph13.0 kmh 30.11 in1019.6 mb - 0.00 in0.0 mm 0.33 in8.4 mm
11:50 PM 54.4°F12.4°C 52.4°F11.3°C 93% 3.5 mph WNW5.6 kmh WNW 3.5 mph5.6 kmh 30.11 in1019.6 mb - 0.00 in0.0 mm 0.33 in8.4 mm
11:55 PM 54.4°F12.4°C 52.4°F11.3°C 93% 3.5 mph NW5.6 kmh NW 6.9 mph11.1 kmh 30.11 in1019.6 mb - 0.00 in0.0 mm 0.33 in8.4 mm